Time;durP1;ratioP1;P1;durP2;ratioP2;P2;SDS_P1;SDS_P2;PMS_P1;PMS_P2;Temp;Humidity;BMP_temperature;BMP_pressure;BME280_temperature;BME280_humidity;BME280_pressure;Samples;Min_cycle;Max_cycle;Signal;HPM_P1;HPM_P2
2022/10/28 00:01:15;;;;;;;;;10.50;10.50;;;;;17.79;56.39;99583.44;4994073;27;104082;-67
2022/10/28 00:03:44;;;;;;;;;11.50;9.75;;;;;17.78;56.84;99579.88;4988991;27;102337;-67
2022/10/28 00:06:19;;;;;;;;;3.00;2.00;;;;;17.78;56.09;99579.03;4982440;28;102273;-68
2022/10/28 00:08:46;;;;;;;;;11.00;10.25;;;;;17.76;56.57;99576.53;4986860;27;103585;-67
2022/10/28 00:11:32;;;;;;;;;11.25;9.75;;;;;17.75;56.57;99572.09;4989664;27;105611;-67
2022/10/28 00:14:03;;;;;;;;;9.75;9.50;;;;;17.76;55.96;99565.59;5008139;27;102381;-67
2022/10/28 00:16:32;;;;;;;;;12.50;11.25;;;;;17.75;55.91;99576.75;4988146;28;102860;-67
2022/10/28 00:18:59;;;;;;;;;10.00;9.00;;;;;17.73;56.26;99576.97;4981909;27;102404;-67
2022/10/28 00:21:28;;;;;;;;;9.75;9.50;;;;;17.74;56.25;99580.56;4991227;27;104205;-68
2022/10/28 00:23:55;;;;;;;;;13.75;10.75;;;;;17.71;56.44;99565.41;5001291;27;102274;-67
2022/10/28 00:26:24;;;;;;;;;8.75;8.50;;;;;17.71;56.38;99568.16;4997554;27;102311;-68
2022/10/28 00:28:56;;;;;;;;;10.75;10.00;;;;;17.72;56.33;99566.25;4976015;28;103298;-68
2022/10/28 00:31:25;;;;;;;;;10.00;9.00;;;;;17.71;56.81;99568.16;4986971;27;108890;-66
2022/10/28 00:33:52;;;;;;;;;9.50;7.75;;;;;17.71;56.76;99564.56;5000834;27;103284;-68
2022/10/28 00:36:23;;;;;;;;;11.50;9.25;;;;;17.71;55.79;99554.47;4979975;27;102233;-69
2022/10/28 00:38:51;;;;;;;;;10.00;10.00;;;;;17.71;56.69;99559.94;4983641;27;102773;-68
2022/10/28 00:41:23;;;;;;;;;10.00;10.00;;;;;17.71;56.40;99549.00;4975961;28;104159;-69
2022/10/28 00:43:52;;;;;;;;;10.50;9.00;;;;;17.71;56.13;99553.63;4980418;27;102238;-69
2022/10/28 00:46:24;;;;;;;;;10.75;10.50;;;;;17.70;56.47;99551.94;4990565;28;102492;-68
2022/10/28 00:49:00;;;;;;;;;12.00;10.00;;;;;17.70;56.72;99551.94;4993744;27;102570;-68
2022/10/28 00:51:27;;;;;;;;;11.75;10.25;;;;;17.69;55.83;99545.66;4978880;27;109178;-67
2022/10/28 00:53:55;;;;;;;;;12.75;10.75;;;;;17.69;56.43;99545.66;4958184;27;102452;-66
2022/10/28 00:56:25;;;;;;;;;12.75;10.00;;;;;17.68;55.85;99543.16;4986924;27;102825;-67
2022/10/28 00:58:54;;;;;;;;;9.50;9.00;;;;;17.68;56.03;99537.66;4984497;28;102792;-68
2022/10/28 01:01:21;;;;;;;;;9.50;8.00;;;;;17.67;55.74;99542.31;4984260;28;108996;-68
2022/10/28 01:03:49;;;;;;;;;8.00;8.00;;;;;17.66;55.93;99534.31;4989978;27;103463;-67
2022/10/28 01:06:28;;;;;;;;;11.75;9.50;;;;;17.66;56.22;99532.41;4988952;27;102374;-67
2022/10/28 01:09:13;;;;;;;;;12.00;10.00;;;;;17.65;56.43;99521.72;4982916;27;102244;-67
2022/10/28 01:11:56;;;;;;;;;10.25;10.25;;;;;17.65;56.41;99522.53;4981766;27;103656;-67
2022/10/28 01:14:53;;;;;;;;;12.50;10.00;;;;;17.65;56.19;99527.19;4985384;27;103821;-67
2022/10/28 01:17:55;;;;;;;;;10.00;9.67;;;;;17.65;55.78;99527.19;4972432;27;102551;-67
2022/10/28 01:20:44;;;;;;;;;9.00;8.00;;;;;17.64;55.65;99523.63;4992074;27;102302;-67
2022/10/28 01:23:33;;;;;;;;;12.50;11.00;;;;;17.63;56.58;99513.72;4977173;27;103099;-68
2022/10/28 01:26:32;;;;;;;;;11.50;10.25;;;;;17.63;55.78;99513.72;4999807;27;103691;-67
2022/10/28 01:29:02;;;;;;;;;10.25;10.25;;;;;17.63;55.67;99512.88;4989050;27;102962;-67
2022/10/28 01:31:38;;;;;;;;;13.25;9.75;;;;;17.62;56.11;99516.69;4976883;27;103180;-67
2022/10/28 01:34:10;;;;;;;;;9.50;9.00;;;;;17.62;56.44;99511.22;4986604;27;104364;-67
2022/10/28 01:36:47;;;;;;;;;9.75;8.00;;;;;17.61;56.16;99521.31;4978311;27;102889;-67
2022/10/28 01:39:20;;;;;;;;;9.25;8.75;;;;;17.60;55.75;99519.66;4997231;27;102633;-68
2022/10/28 01:42:06;;;;;;;;;10.00;9.50;;;;;17.59;56.03;99517.97;4980042;28;103691;-68
2022/10/28 01:44:39;;;;;;;;;9.75;9.00;;;;;17.60;56.45;99519.66;4979902;27;108819;-68
2022/10/28 01:47:18;;;;;;;;;10.25;9.00;;;;;17.60;55.80;99514.19;4984589;27;102555;-68
2022/10/28 01:49:54;;;;;;;;;9.50;9.50;;;;;17.59;56.51;99507.03;4988135;27;103349;-68
2022/10/28 01:52:23;;;;;;;;;11.25;9.25;;;;;17.59;56.18;99509.78;4972465;28;102546;-68
2022/10/28 01:54:53;;;;;;;;;9.00;9.00;;;;;17.58;56.48;99509.94;4988715;28;109066;-68
2022/10/28 01:57:20;;;;;;;;;10.75;8.75;;;;;17.58;55.95;99508.09;5004996;27;102552;-68
2022/10/28 01:59:47;;;;;;;;;10.25;9.75;;;;;17.57;56.22;99514.59;4979146;27;102736;-68
2022/10/28 02:02:15;;;;;;;;;9.00;9.00;;;;;17.57;55.94;99503.63;4985951;27;102350;-68
2022/10/28 02:04:41;;;;;;;;;8.75;8.75;;;;;17.56;56.23;99496.50;4991016;27;103560;-68
2022/10/28 02:07:08;;;;;;;;;8.75;8.75;;;;;17.57;55.82;99492.69;4983574;27;102571;-68
2022/10/28 02:09:50;;;;;;;;;9.25;8.25;;;;;17.58;56.03;99488.06;4987237;27;102594;-68
2022/10/28 02:12:34;;;;;;;;;11.00;10.00;;;;;17.56;55.92;99490.22;4987910;27;102302;-68
2022/10/28 02:15:32;;;;;;;;;9.50;9.00;;;;;17.55;56.30;99494.84;4975522;28;109851;-67
2022/10/28 02:18:12;;;;;;;;;9.25;9.00;;;;;17.55;55.65;99492.09;4982085;27;102256;-68
2022/10/28 02:20:58;;;;;;;;;10.75;9.75;;;;;17.54;55.47;99492.31;4986723;27;102881;-68
2022/10/28 02:23:55;;;;;;;;;9.67;9.00;;;;;17.53;56.01;99483.28;4977316;28;104106;-68
2022/10/28 02:26:40;;;;;;;;;6.25;6.00;;;;;17.52;56.29;99484.34;4983714;28;108882;-68
2022/10/28 02:29:24;;;;;;;;;9.33;8.67;;;;;17.53;55.63;99486.00;4984623;27;103050;-68
2022/10/28 02:31:54;;;;;;;;;9.50;9.00;;;;;17.52;56.02;99481.59;4983003;27;103840;-68
2022/10/28 02:34:25;;;;;;;;;10.50;9.00;;;;;17.52;55.84;99475.28;4990674;28;102571;-67
2022/10/28 02:36:53;;;;;;;;;9.00;8.25;;;;;17.50;56.00;99478.25;4962833;28;108717;-68
2022/10/28 02:39:23;;;;;;;;;8.50;7.75;;;;;17.51;56.53;99482.69;4968455;28;103105;-67
2022/10/28 02:41:50;;;;;;;;;9.00;8.50;;;;;17.51;56.01;99479.94;4985243;28;102409;-68
2022/10/28 02:44:29;;;;;;;;;9.00;8.00;;;;;17.51;56.12;99479.09;4999791;27;102256;-68
2022/10/28 02:46:58;;;;;;;;;11.00;9.50;;;;;17.51;55.63;99476.38;4977060;28;109233;-65
2022/10/28 02:49:25;;;;;;;;;11.75;7.25;;;;;17.50;56.12;99477.44;4990297;27;104040;-66
2022/10/28 02:51:59;;;;;;;;;9.00;9.00;;;;;17.49;56.19;99476.59;4961769;28;102461;-68
2022/10/28 02:54:31;;;;;;;;;10.00;8.00;;;;;17.48;55.39;99461.22;4981000;27;102514;-66
2022/10/28 02:57:28;;;;;;;;;9.50;9.00;;;;;17.49;55.57;99462.06;4983761;27;104025;-67
2022/10/28 02:59:57;;;;;;;;;8.25;8.00;;;;;17.48;55.54;99458.50;4972787;28;102528;-66
2022/10/28 03:02:24;;;;;;;;;8.75;8.00;;;;;17.47;56.31;99454.09;4975693;28;102241;-67
2022/10/28 03:04:51;;;;;;;;;11.00;9.00;;;;;17.47;56.53;99453.28;4995006;27;103967;-68
2022/10/28 03:07:18;;;;;;;;;8.50;7.25;;;;;17.46;55.85;99446.97;4998292;27;104054;-68
2022/10/28 03:09:45;;;;;;;;;10.25;9.75;;;;;17.46;56.08;99448.84;4982348;27;103217;-67
2022/10/28 03:12:13;;;;;;;;;9.00;8.25;;;;;17.46;56.49;99454.31;4985161;27;102320;-68
2022/10/28 03:14:41;;;;;;;;;10.25;8.50;;;;;17.46;55.53;99451.59;4981959;28;103245;-68
2022/10/28 03:17:08;;;;;;;;;7.25;7.25;;;;;17.45;55.86;99439.81;4981802;27;105592;-68
2022/10/28 03:19:35;;;;;;;;;9.25;8.75;;;;;17.45;55.87;99439.81;4994534;27;102451;-68
2022/10/28 03:22:02;;;;;;;;;4.00;4.00;;;;;17.44;55.74;99426.34;4982811;27;103892;-68
2022/10/28 03:24:29;;;;;;;;;7.25;7.00;;;;;17.45;55.60;99431.63;4983739;28;104075;-67
2022/10/28 03:26:56;;;;;;;;;9.00;8.00;;;;;17.44;55.46;99432.66;4984275;27;103798;-66
2022/10/28 03:29:23;;;;;;;;;8.25;8.00;;;;;17.44;56.52;99443.59;4992594;27;102465;-67
2022/10/28 03:31:49;;;;;;;;;10.50;9.00;;;;;17.43;55.60;99436.47;4988137;27;102456;-67
2022/10/28 03:34:16;;;;;;;;;11.00;9.00;;;;;17.42;56.00;99446.56;4976766;28;102697;-67
2022/10/28 03:36:43;;;;;;;;;9.00;7.50;;;;;17.42;55.82;99452.03;5000332;27;103151;-67
2022/10/28 03:39:10;;;;;;;;;7.50;7.00;;;;;17.40;55.76;99454.16;4986734;27;102824;-66
2022/10/28 03:41:37;;;;;;;;;3.25;3.00;;;;;17.41;55.70;99433.13;4986962;27;104396;-66
2022/10/28 03:44:05;;;;;;;;;7.50;7.50;;;;;17.41;56.32;99449.53;4992072;27;104446;-66
2022/10/28 03:46:32;;;;;;;;;5.75;5.75;;;;;17.39;55.10;99441.53;4979178;27;104432;-67
2022/10/28 03:49:02;;;;;;;;;7.50;6.75;;;;;17.39;55.94;99447.00;4981770;27;102903;-66
2022/10/28 03:51:29;;;;;;;;;9.00;8.00;;;;;17.39;55.94;99449.75;4987765;27;102533;-66
2022/10/28 03:53:56;;;;;;;;;7.00;7.00;;;;;17.39;55.98;99446.16;4989772;27;102475;-67
2022/10/28 03:56:23;;;;;;;;;8.75;8.50;;;;;17.39;56.00;99436.06;4995160;27;103415;-66
2022/10/28 03:58:49;;;;;;;;;9.00;7.00;;;;;17.40;56.29;99443.22;4986526;27;102254;-67
2022/10/28 04:01:21;;;;;;;;;8.00;8.00;;;;;17.40;55.86;99431.44;4990113;27;102666;-67
2022/10/28 04:03:48;;;;;;;;;6.25;6.25;;;;;17.40;55.77;99431.44;4996261;27;102506;-66
2022/10/28 04:06:15;;;;;;;;;9.25;8.00;;;;;17.38;55.62;99418.00;4976913;28;104036;-67
2022/10/28 04:08:42;;;;;;;;;8.00;8.00;;;;;17.38;55.95;99422.66;4986783;27;102159;-67
2022/10/28 04:11:09;;;;;;;;;9.50;9.00;;;;;17.38;55.30;99433.59;4980681;27;105214;-67
2022/10/28 04:13:36;;;;;;;;;6.00;6.00;;;;;17.36;55.37;99432.97;4984147;27;102533;-67
2022/10/28 04:16:04;;;;;;;;;7.25;7.00;;;;;17.37;55.98;99448.31;4977469;27;103986;-67
2022/10/28 04:18:31;;;;;;;;;8.33;7.00;;;;;17.36;55.41;99436.53;4980947;27;103146;-67
2022/10/28 04:20:58;;;;;;;;;9.25;8.50;;;;;17.36;56.07;99441.16;4988082;27;103180;-66
2022/10/28 04:23:25;;;;;;;;;8.00;7.00;;;;;17.35;55.37;99445.78;4988760;27;102312;-65
2022/10/28 04:25:55;;;;;;;;;9.00;9.00;;;;;17.35;56.13;99444.94;4999384;27;104118;-67
2022/10/28 04:28:24;;;;;;;;;8.50;7.25;;;;;17.34;55.44;99440.53;4984647;28;102588;-67
2022/10/28 04:30:51;;;;;;;;;8.00;7.00;;;;;17.34;55.86;99443.28;4979689;27;102580;-67
2022/10/28 04:33:18;;;;;;;;;4.00;3.75;;;;;17.34;56.30;99446.00;4975099;28;102643;-67
2022/10/28 04:35:45;;;;;;;;;11.00;7.75;;;;;17.34;55.22;99443.28;4988850;27;105742;-67
2022/10/28 04:38:13;;;;;;;;;8.00;7.75;;;;;17.34;55.12;99446.00;4977846;27;102490;-67
2022/10/28 04:40:40;;;;;;;;;7.00;6.25;;;;;17.34;55.77;99429.59;4983967;27;102292;-67
2022/10/28 04:43:07;;;;;;;;;7.50;7.00;;;;;17.34;55.05;99432.34;4988466;27;102655;-67
2022/10/28 04:45:36;;;;;;;;;9.50;8.00;;;;;17.34;55.73;99426.88;4980021;27;104157;-67
2022/10/28 04:48:03;;;;;;;;;7.00;7.00;;;;;17.32;55.64;99423.53;4981046;28;102630;-68
2022/10/28 04:50:30;;;;;;;;;6.25;6.25;;;;;17.32;55.66;99416.19;4980462;28;102687;-66
2022/10/28 04:52:57;;;;;;;;;6.00;6.00;;;;;17.32;56.31;99420.81;4984749;27;102579;-67
2022/10/28 04:55:24;;;;;;;;;7.00;7.00;;;;;17.31;55.40;99419.13;4995426;28;104104;-67
2022/10/28 04:57:58;;;;;;;;;7.25;7.00;;;;;17.31;55.84;99427.31;4986317;27;103243;-67
2022/10/28 05:00:26;;;;;;;;;8.50;7.75;;;;;17.29;55.55;99424.81;4977403;27;102974;-66
2022/10/28 05:02:53;;;;;;;;;6.75;6.25;;;;;17.30;56.06;99425.66;4983947;28;102612;-67
2022/10/28 05:05:20;;;;;;;;;7.00;6.75;;;;;17.29;55.70;99432.19;4979669;27;109147;-68
2022/10/28 05:07:47;;;;;;;;;7.25;7.25;;;;;17.28;56.07;99428.63;4992094;27;102540;-68
2022/10/28 05:10:16;;;;;;;;;8.50;7.00;;;;;17.29;55.96;99434.94;4972833;27;102235;-68
2022/10/28 05:12:44;;;;;;;;;7.00;6.00;;;;;17.27;55.76;99426.94;4986879;27;102163;-67
2022/10/28 05:15:11;;;;;;;;;7.00;7.00;;;;;17.28;55.33;99422.31;4983176;27;104032;-68
2022/10/28 05:17:39;;;;;;;;;7.50;6.50;;;;;17.28;55.88;99423.16;4982271;28;102558;-67
2022/10/28 05:20:07;;;;;;;;;8.00;8.00;;;;;17.29;55.45;99418.53;4968211;28;102415;-67
2022/10/28 05:22:34;;;;;;;;;9.00;8.00;;;;;17.27;55.81;99410.53;4983577;27;103548;-67
2022/10/28 05:25:01;;;;;;;;;7.00;7.00;;;;;17.28;55.54;99394.97;4977393;27;104078;-67
2022/10/28 05:27:28;;;;;;;;;5.50;5.25;;;;;17.27;56.19;99398.78;4986780;27;102297;-67
2022/10/28 05:29:55;;;;;;;;;6.00;6.00;;;;;17.26;55.07;99397.94;4982202;28;102899;-68
2022/10/28 05:32:22;;;;;;;;;7.25;6.00;;;;;17.26;55.77;99397.94;4999049;28;102597;-68
2022/10/28 05:34:49;;;;;;;;;6.75;5.50;;;;;17.24;55.71;99397.34;4984188;28;104083;-68
2022/10/28 05:37:16;;;;;;;;;7.00;6.50;;;;;17.25;55.31;99396.25;4975772;27;103870;-68
2022/10/28 05:39:43;;;;;;;;;7.00;6.25;;;;;17.26;55.79;99405.28;4981848;27;103446;-68
2022/10/28 05:42:10;;;;;;;;;7.00;7.00;;;;;17.24;55.29;99408.28;4988920;27;102522;-68
2022/10/28 05:44:37;;;;;;;;;11.00;8.75;;;;;17.23;55.64;99400.28;4987708;27;104084;-67
2022/10/28 05:47:04;;;;;;;;;9.00;7.00;;;;;17.23;55.91;99411.22;4989836;27;102591;-67
2022/10/28 05:49:31;;;;;;;;;9.25;8.75;;;;;17.22;55.73;99418.56;4995926;27;102366;-67
2022/10/28 05:51:58;;;;;;;;;8.50;7.00;;;;;17.23;55.95;99424.88;4989046;28;102628;-66
2022/10/28 05:54:25;;;;;;;;;8.75;7.00;;;;;17.23;55.67;99413.94;4978042;27;102369;-65
2022/10/28 05:56:52;;;;;;;;;7.00;7.00;;;;;17.23;55.99;99419.41;4986272;28;102239;-67
2022/10/28 05:59:19;;;;;;;;;6.50;6.00;;;;;17.24;55.26;99426.56;4987167;27;102513;-67
2022/10/28 06:01:46;;;;;;;;;9.25;8.00;;;;;17.23;55.61;99417.53;4998864;27;102505;-67
2022/10/28 06:04:13;;;;;;;;;7.25;7.25;;;;;17.24;55.78;99418.38;4989504;27;103654;-68
2022/10/28 06:06:40;;;;;;;;;6.00;5.00;;;;;17.24;55.18;99421.09;4981278;28;102242;-67
2022/10/28 06:09:07;;;;;;;;;7.00;7.00;;;;;17.23;54.78;99414.78;4989526;27;101977;-66
2022/10/28 06:11:34;;;;;;;;;6.00;6.00;;;;;17.22;55.74;99413.13;4996672;27;102575;-66
2022/10/28 06:14:01;;;;;;;;;8.00;8.00;;;;;17.22;55.31;99412.28;4973759;27;104024;-66
2022/10/28 06:16:28;;;;;;;;;9.00;8.00;;;;;17.21;55.37;99411.44;4983852;27;102481;-64
2022/10/28 06:18:55;;;;;;;;;9.00;8.00;;;;;17.21;55.71;99411.44;4983035;27;102610;-63
2022/10/28 06:21:22;;;;;;;;;9.50;8.00;;;;;17.21;55.27;99413.31;4998773;27;102601;-64
2022/10/28 06:23:50;;;;;;;;;9.75;8.50;;;;;17.20;55.32;99408.94;4987673;27;104072;-65
2022/10/28 06:26:17;;;;;;;;;10.00;9.00;;;;;17.19;55.67;99407.25;4989191;27;103435;-65
2022/10/28 06:28:46;;;;;;;;;8.75;8.00;;;;;17.20;56.17;99414.41;4986218;27;103882;-65
2022/10/28 06:31:13;;;;;;;;;9.00;8.00;;;;;17.18;55.05;99411.88;4999158;27;102195;-67
2022/10/28 06:33:40;;;;;;;;;7.25;7.25;;;;;17.18;54.67;99419.25;4989520;27;104268;-66
2022/10/28 06:36:07;;;;;;;;;9.00;6.25;;;;;17.18;55.12;99421.97;4998999;27;102564;-66
2022/10/28 06:38:34;;;;;;;;;6.50;6.50;;;;;17.18;55.33;99419.25;4995116;27;103143;-65
2022/10/28 06:41:01;;;;;;;;;8.25;6.50;;;;;17.20;55.48;99430.81;4990734;28;102139;-64
2022/10/28 06:43:28;;;;;;;;;7.00;6.50;;;;;17.20;55.50;99436.28;4998064;27;104035;-64
2022/10/28 06:45:56;;;;;;;;;6.75;6.50;;;;;17.20;55.36;99437.09;4998408;27;102158;-66
2022/10/28 06:48:23;;;;;;;;;9.25;8.50;;;;;17.19;55.10;99442.78;4988932;27;103167;-63
2022/10/28 06:50:50;;;;;;;;;6.00;6.00;;;;;17.21;55.27;99435.19;4993176;27;102759;-64
2022/10/28 06:53:17;;;;;;;;;8.25;6.75;;;;;17.21;54.84;99436.03;4987391;27;103927;-63
2022/10/28 06:55:51;;;;;;;;;5.50;5.25;;;;;17.21;55.95;99443.38;4994352;28;102403;-61
2022/10/28 06:58:18;;;;;;;;;6.00;5.00;;;;;17.22;55.38;99447.81;4981476;27;102157;-62
2022/10/28 07:00:45;;;;;;;;;10.00;6.00;;;;;17.21;56.59;99444.22;4985229;27;102124;-62
2022/10/28 07:03:12;;;;;;;;;7.00;7.00;;;;;17.22;55.78;99461.47;4984762;27;104068;-63
2022/10/28 07:05:39;;;;;;;;;6.50;6.00;;;;;17.20;56.49;99455.41;4989342;27;102342;-63
2022/10/28 07:08:06;;;;;;;;;7.00;6.00;;;;;17.20;55.50;99458.94;5002591;27;102810;-61
2022/10/28 07:10:33;;;;;;;;;8.50;8.25;;;;;17.20;55.57;99463.59;4997706;28;102433;-61
2022/10/28 07:13:00;;;;;;;;;8.00;6.00;;;;;17.18;56.10;99461.09;4985454;27;104192;-64
2022/10/28 07:15:27;;;;;;;;;8.00;6.00;;;;;17.18;56.00;99460.25;4964225;28;102679;-63
2022/10/28 07:17:54;;;;;;;;;6.00;6.00;;;;;17.18;55.81;99455.63;4986351;27;103377;-63
2022/10/28 07:20:22;;;;;;;;;6.00;6.00;;;;;17.18;55.23;99455.63;4995949;27;102158;-63
2022/10/28 07:22:58;;;;;;;;;7.50;7.00;;;;;17.19;55.65;99461.94;4984649;27;105205;-62
2022/10/28 07:25:26;;;;;;;;;7.00;7.00;;;;;17.19;55.36;99459.19;5017737;27;102517;-63
2022/10/28 07:27:53;;;;;;;;;6.00;6.00;;;;;17.19;55.29;99459.19;4876421;28;102569;-62
2022/10/28 07:30:20;;;;;;;;;6.25;6.25;;;;;17.19;55.34;99456.47;4984240;27;103609;-61
2022/10/28 07:32:47;;;;;;;;;6.25;6.25;;;;;17.18;55.84;99458.34;4982686;27;104053;-63
2022/10/28 07:35:14;;;;;;;;;7.00;7.00;;;;;17.19;55.30;99460.03;4993269;27;102698;-61
2022/10/28 07:37:41;;;;;;;;;9.75;7.75;;;;;17.19;55.88;99456.47;4993091;27;102564;-62
2022/10/28 07:40:09;;;;;;;;;9.50;8.00;;;;;17.19;56.11;99459.19;4991098;27;102311;-62
2022/10/28 07:42:36;;;;;;;;;9.50;8.75;;;;;17.19;55.45;99460.03;4977340;28;103374;-62
2022/10/28 07:45:03;;;;;;;;;9.25;9.25;;;;;17.19;55.88;99453.72;4994619;27;102383;-62
2022/10/28 07:47:30;;;;;;;;;9.75;9.25;;;;;17.19;55.31;99456.47;4993243;27;102335;-62
2022/10/28 07:49:57;;;;;;;;;10.25;10.25;;;;;17.19;55.88;99448.25;4988935;27;102066;-62
2022/10/28 07:52:24;;;;;;;;;13.00;11.50;;;;;17.18;55.11;99447.41;4986365;27;108926;-63
2022/10/28 07:54:51;;;;;;;;;11.25;11.25;;;;;17.17;55.44;99442.16;4993054;28;102570;-62
2022/10/28 07:57:18;;;;;;;;;13.50;11.75;;;;;17.17;55.36;99443.00;4993273;27;102542;-62
2022/10/28 07:59:45;;;;;;;;;12.75;11.50;;;;;17.17;55.69;99444.91;4993100;27;102312;-63
2022/10/28 08:02:16;;;;;;;;;10.50;9.75;;;;;17.17;55.23;99448.47;4986260;27;103714;-63
2022/10/28 08:04:43;;;;;;;;;9.00;8.00;;;;;17.19;55.20;99437.31;4983573;27;102639;-63
2022/10/28 08:07:11;;;;;;;;;8.75;8.00;;;;;17.19;55.49;99440.91;4994483;27;102059;-62
2022/10/28 08:09:38;;;;;;;;;9.00;8.50;;;;;17.19;55.14;99448.25;4992754;27;102204;-63
2022/10/28 08:12:06;;;;;;;;;10.75;9.25;;;;;17.20;55.80;99441.75;4990421;27;104108;-63
2022/10/28 08:14:33;;;;;;;;;9.25;9.25;;;;;17.21;55.50;99444.22;4984769;27;102542;-63
2022/10/28 08:17:00;;;;;;;;;10.25;8.00;;;;;17.21;54.81;99448.84;4990082;28;102349;-63
2022/10/28 08:19:27;;;;;;;;;10.00;8.25;;;;;17.21;55.78;99441.50;4998219;27;102404;-63
2022/10/28 08:21:54;;;;;;;;;10.00;9.75;;;;;17.21;55.55;99435.19;4992041;27;109304;-63
2022/10/28 08:24:21;;;;;;;;;13.00;11.50;;;;;17.20;55.19;99430.81;4989191;28;102313;-63
2022/10/28 08:26:48;;;;;;;;;8.00;8.00;;;;;17.20;55.22;99439.81;4988823;27;102221;-63
2022/10/28 08:29:15;;;;;;;;;12.75;10.75;;;;;17.19;55.03;99431.84;4990742;27;102329;-62
2022/10/28 08:31:42;;;;;;;;;12.00;8.75;;;;;17.20;55.46;99430.81;5008667;27;103831;-63
2022/10/28 08:34:09;;;;;;;;;9.25;9.25;;;;;17.19;55.17;99426.41;4978744;27;106603;-63
2022/10/28 08:36:36;;;;;;;;;12.50;11.00;;;;;17.19;55.25;99429.97;4984287;28;102429;-63
2022/10/28 08:39:03;;;;;;;;;10.50;10.00;;;;;17.19;55.77;99429.13;4967653;28;103338;-64
2022/10/28 08:41:46;;;;;;;;;11.25;10.25;;;;;17.20;55.94;99439.00;4986075;27;104191;-63
2022/10/28 08:44:13;;;;;;;;;11.25;11.00;;;;;17.20;55.11;99436.28;4978604;27;102215;-60
2022/10/28 08:46:43;;;;;;;;;7.00;7.00;;;;;17.20;55.63;99434.34;4987722;28;103096;-62
2022/10/28 08:49:12;;;;;;;;;11.25;9.50;;;;;17.21;55.13;99437.91;4994006;27;102382;-62
2022/10/28 08:51:54;;;;;;;;;9.00;9.00;;;;;17.21;55.84;99432.47;4991501;27;104038;-62
2022/10/28 08:54:33;;;;;;;;;9.50;8.50;;;;;17.22;55.12;99434.13;4981069;27;102237;-61
2022/10/28 08:57:01;;;;;;;;;9.25;8.25;;;;;17.23;55.28;99424.88;4968544;28;102445;-63
2022/10/28 08:59:33;;;;;;;;;9.50;8.25;;;;;17.23;54.80;99425.72;4968368;28;102208;-63
2022/10/28 09:02:02;;;;;;;;;7.25;7.00;;;;;17.22;55.59;99425.94;4980971;28;108962;-63
2022/10/28 09:04:38;;;;;;;;;6.50;6.25;;;;;17.23;55.39;99431.19;4988017;28;102543;-63
2022/10/28 09:07:07;;;;;;;;;10.00;10.00;;;;;17.24;55.12;99426.56;4986806;28;102480;-63
2022/10/28 09:09:34;;;;;;;;;9.75;9.25;;;;;17.25;55.06;99422.75;4964963;27;442460;-59
2022/10/28 09:12:38;;;;;;;;;7.00;6.50;;;;;17.28;55.98;99425.06;4971291;28;104074;-60
2022/10/28 09:15:08;;;;;;;;;7.00;6.75;;;;;17.34;60.18;99415.94;4941200;28;543832;-60
2022/10/28 09:17:54;;;;;;;;;6.00;5.00;;;;;17.42;61.33;99412.94;4978043;28;102287;-60
2022/10/28 09:20:46;;;;;;;;;8.75;7.00;;;;;17.51;62.75;99408.00;4933313;28;432056;-60
2022/10/28 09:23:16;;;;;;;;;7.00;6.50;;;;;17.57;64.33;99413.41;4960196;28;108667;-61
2022/10/28 09:26:19;;;;;;;;;8.00;7.00;;;;;17.64;64.12;99411.47;4972619;28;102654;-62
2022/10/28 09:29:25;;;;;;;;;9.00;8.75;;;;;17.69;64.55;99408.91;4989702;28;102339;-62
2022/10/28 09:31:55;;;;;;;;;12.25;10.00;;;;;17.70;65.90;99410.53;4960553;28;102445;-62
2022/10/28 09:34:47;;;;;;;;;15.00;13.00;;;;;17.72;65.25;99404.84;4833725;28;516958;-63
2022/10/28 09:37:14;;;;;;;;;14.25;11.75;;;;;17.73;63.74;99406.53;4971768;28;102563;-63
2022/10/28 09:39:46;;;;;;;;;13.00;12.75;;;;;17.72;63.42;99413.91;4975947;28;102477;-63
2022/10/28 09:42:17;;;;;;;;;16.25;13.75;;;;;17.74;62.77;99405.47;4964876;28;102029;-63
2022/10/28 09:44:50;;;;;;;;;14.00;11.75;;;;;17.76;63.04;99420.59;4969102;28;104024;-63
2022/10/28 09:47:20;;;;;;;;;15.50;14.00;;;;;17.75;62.72;99410.72;4976298;28;102193;-63
2022/10/28 09:49:47;;;;;;;;;11.50;11.50;;;;;17.76;62.59;99415.13;4968221;28;102334;-62
2022/10/28 09:52:22;;;;;;;;;13.00;12.00;;;;;17.78;62.07;99418.47;4973376;28;102025;-62
2022/10/28 09:54:51;;;;;;;;;14.00;12.50;;;;;17.79;61.75;99420.13;4969567;28;104626;-62
2022/10/28 09:57:18;;;;;;;;;13.00;12.00;;;;;17.79;62.31;99413.81;4983848;28;102074;-62
2022/10/28 09:59:46;;;;;;;;;13.50;13.25;;;;;17.81;61.83;99414.44;4989395;28;102138;-62
2022/10/28 10:02:39;;;;;;;;;14.25;14.00;;;;;17.81;61.42;99417.16;4968465;27;102305;-62
2022/10/28 10:05:12;;;;;;;;;13.50;12.50;;;;;17.81;60.69;99407.06;4956671;28;102410;-63
2022/10/28 10:07:51;;;;;;;;;14.50;11.25;;;;;17.82;61.27;99403.28;4966182;28;103967;-63
2022/10/28 10:10:50;;;;;;;;;15.00;13.00;;;;;17.84;60.94;99406.59;4962887;27;102051;-63
2022/10/28 10:13:22;;;;;;;;;13.75;12.25;;;;;17.86;60.12;99408.28;4950872;28;102051;-63
2022/10/28 10:15:58;;;;;;;;;13.50;12.50;;;;;17.87;60.20;99399.03;4959690;28;110254;-63
2022/10/28 10:18:31;;;;;;;;;13.75;13.00;;;;;17.87;60.31;99399.03;4962746;28;111976;-63
2022/10/28 10:20:59;;;;;;;;;15.50;12.50;;;;;17.88;59.68;99395.22;4961196;28;102124;-63
2022/10/28 10:23:33;;;;;;;;;12.75;12.50;;;;;17.88;60.24;99397.97;4952256;28;102012;-63
2022/10/28 10:26:05;;;;;;;;;13.25;12.25;;;;;17.90;59.97;99395.81;4956705;28;102049;-63
2022/10/28 10:28:47;;;;;;;;;14.50;12.00;;;;;17.89;59.70;99391.41;4961575;28;104170;-63
2022/10/28 10:31:20;;;;;;;;;15.00;13.00;;;;;17.89;59.30;99397.72;4958362;28;102313;-63
2022/10/28 10:33:56;;;;;;;;;13.75;13.00;;;;;17.90;59.18;99385.72;4963592;28;102101;-63
2022/10/28 10:36:30;;;;;;;;;19.75;13.00;;;;;17.91;59.79;99392.03;4965148;28;102308;-63
2022/10/28 10:38:59;;;;;;;;;12.25;12.00;;;;;17.91;58.98;99387.38;4965578;28;108779;-63
2022/10/28 10:41:37;;;;;;;;;14.75;12.00;;;;;17.92;59.34;99385.50;4964970;28;102229;-64
2022/10/28 10:44:20;;;;;;;;;11.25;9.50;;;;;17.92;59.25;99385.50;4957286;28;111206;-64
2022/10/28 10:47:07;;;;;;;;;13.50;11.25;;;;;17.92;59.52;99383.56;4955878;28;103189;-63
2022/10/28 10:49:35;;;;;;;;;13.00;13.00;;;;;17.93;59.77;99385.25;4969353;28;108525;-64
2022/10/28 10:52:23;;;;;;;;;15.25;13.75;;;;;17.94;59.33;99383.34;4967943;28;102854;-63
2022/10/28 10:55:31;;;;;;;;;14.75;12.50;;;;;17.95;59.06;99383.13;4965712;28;102358;-64
2022/10/28 10:58:00;;;;;;;;;12.50;12.00;;;;;17.96;59.45;99386.69;4923731;28;102062;-64
2022/10/28 11:00:37;;;;;;;;;13.00;12.50;;;;;17.97;59.13;99386.44;4947256;28;108833;-63
2022/10/28 11:03:15;;;;;;;;;12.50;11.50;;;;;17.97;59.05;99383.72;4953118;28;102131;-63
2022/10/28 11:05:55;;;;;;;;;14.25;12.75;;;;;17.98;58.66;99381.81;4944102;28;102315;-64
2022/10/28 11:08:43;;;;;;;;;13.50;12.00;;;;;18.00;59.10;99385.16;4938561;28;103012;-64
2022/10/28 11:11:19;;;;;;;;;15.00;13.50;;;;;17.99;58.36;99375.28;4947130;28;104468;-64
2022/10/28 11:13:48;;;;;;;;;13.50;13.50;;;;;18.03;58.66;99379.22;4939548;28;102040;-63
2022/10/28 11:16:23;;;;;;;;;13.25;13.00;;;;;18.04;58.57;99378.16;4933384;28;102356;-63
2022/10/28 11:18:52;;;;;;;;;13.50;12.25;;;;;18.05;58.28;99374.38;4918908;28;102456;-63
2022/10/28 11:21:42;;;;;;;;;11.25;11.25;;;;;18.07;58.81;99374.97;4936794;28;104076;-63
2022/10/28 11:24:24;;;;;;;;;11.50;10.00;;;;;18.08;58.45;99372.00;4912716;28;102185;-63
2022/10/28 11:27:12;;;;;;;;;11.75;11.50;;;;;18.11;58.29;99368.78;4946395;28;101826;-63
2022/10/28 11:29:40;;;;;;;;;10.50;8.00;;;;;18.12;57.59;99366.91;4930799;28;102307;-62
2022/10/28 11:32:41;;;;;;;;;13.25;12.00;;;;;18.14;57.91;99364.78;4946674;28;104034;-64
2022/10/28 11:35:45;;;;;;;;;9.25;9.00;;;;;18.17;57.38;99356.09;4931822;28;102056;-63
2022/10/28 11:38:52;;;;;;;;;13.00;11.00;;;;;18.19;57.23;99367.66;4928629;28;102064;-63
2022/10/28 11:41:30;;;;;;;;;12.75;11.50;;;;;18.21;57.59;99362.78;4941339;28;102267;-64